Tocumen, Panama

11:46 AM EST on December 29, 2014 (GMT -0500)
Tocumen International | Change Station
CLOSE
Current Station
Airport
Location: Tocumen,
Elevation: 148 ft
Nearby Weather Stations

Elev 148 ft 9.05 °N, 79.37 °W | Updated 46 minutes ago

Scattered Clouds
Scattered Clouds
90 °F
Feels Like 98 °F
N
9
Wind Variable Wind from NE

Today
High -- | Low -- °F
--% Chance of Precip.
Yesterday
High -- | Low -- °F
Precip. -- in
6:31 AM 6:07 PM
First Quarter, 60% visible
Pressure 29.89 in
Visibility 5.6 miles
Clouds Scattered Clouds 1800 ft
Heat Index 98 °F
Dew Point 73 °F
Humidity 59%
Rainfall 0.00 in
Snow Depth Not available.
UV 9 out of 12
Pollen Not available.
Air Quality Not available.
Flu Activity Not available.
METAR MPTO 291600Z 04008KT 9000 SCT018 32/23 Q1012 NOSIG

More Conditions Fewer Conditions

Pressure 29.89 in
Visibility 5.6 miles
Clouds Scattered Clouds 1800 ft
Heat Index 98 °F
Dew Point 73 °F
Humidity 59%
Rainfall 0.00 in
Snow Depth Not available.
UV 9 out of 12
Pollen Not available.
Air Quality Not available.
Flu Activity Not available.
METAR MPTO 291600Z 04008KT 9000 SCT018 32/23 Q1012 NOSIG

More Conditions Fewer Conditions

10-Day Weather Forecast

Almanac

Astronomy

Dec. 29, 2014 Rise Set
Actual Time
Civil Twilight
Nautical Twilight
Astronomical Twilight
Moon
Length of Visible Light
Length of Day
Tomorrow will be .
, % of the Moon is Illuminated

Today's Extremes

Country Highs Country Lows

Community

WunderPhotos

Upload Photos

1,781,648 photos uploaded!

WunderBlogs® & News

Nearby

Air Quality

  Air Quality AQ Index Pollutant
Not available.

Snow Depth

Station Depth Elevation

Earthquake Activity

City Distance Mag. Time & Date
Minimum magnitude displayed is 2.5.

Coastal Water Temperatures

Place Temperature

Nearby Weather Stations